Wynyard, Canada
Current Conditions -  °F | °C
As of 9:00 PM on Friday 19 Dec 2014 (Local Time) from CYQV Reporting Station
Overcast Overcast  
Wind Chill: 21°   Ceiling: 700
Heat Index: 21°   Visibility: 9mi
Dew Point: 19°   Wind: 2mph
Humidity: 93%   Direction: NA
Pressure: 29.94"   Gusts: NA
Location:  51.77°N, 104.18°W
Report Text: CYQV 200300Z AUTO VRB02KT 9SM OVC007 M06/M07 A2994 RMK SLP170
Loading
Personal Weather Stations






























Interactive Weather Map New forecast layout! Learn more

10-Day Weather Forecast

Advertisements
Track Severe Weather on mobile